createdAt,value
2023-01-28T00:00:01.077Z,0.0
2023-01-28T00:10:00.854Z,0.4
2023-01-28T00:20:00.985Z,0.3
2023-01-28T00:30:01.014Z,-0.0
2023-01-28T00:40:02.356Z,-0.2
2023-01-28T00:50:01.455Z,-0.1
2023-01-28T01:00:01.259Z,-0.2
2023-01-28T01:10:01.250Z,-0.3
2023-01-28T01:20:01.270Z,-0.2
2023-01-28T01:30:01.060Z,-0.3
2023-01-28T01:40:00.970Z,-0.2
2023-01-28T01:50:02.133Z,-0.1
2023-01-28T02:00:01.286Z,0.2
2023-01-28T02:10:01.257Z,0.5
2023-01-28T02:20:01.057Z,0.6
2023-01-28T02:30:01.043Z,0.7
2023-01-28T02:40:00.988Z,0.7
2023-01-28T02:50:01.043Z,0.7
2023-01-28T03:00:04.183Z,0.7
2023-01-28T03:10:01.019Z,0.8
2023-01-28T03:20:01.028Z,0.7
2023-01-28T03:30:00.515Z,0.7
2023-01-28T03:40:01.136Z,0.6
2023-01-28T03:50:02.150Z,0.8
2023-01-28T04:00:01.775Z,0.7
2023-01-28T04:10:01.290Z,0.9
2023-01-28T04:30:00.509Z,0.7
2023-01-28T04:40:03.413Z,0.9
2023-01-28T04:50:01.227Z,0.9
2023-01-28T05:00:03.216Z,0.9
2023-01-28T05:10:01.041Z,1.0
2023-01-28T05:20:01.500Z,1.1
2023-01-28T05:30:00.994Z,1.3
2023-01-28T05:40:00.836Z,1.3
2023-01-28T05:50:01.118Z,1.4
2023-01-28T06:00:02.178Z,1.4
2023-01-28T06:10:01.315Z,1.3
2023-01-28T06:20:01.965Z,1.5
2023-01-28T06:30:01.026Z,1.3
2023-01-28T06:40:01.039Z,1.4
2023-01-28T06:50:01.052Z,1.5
2023-01-28T07:00:01.265Z,1.3
2023-01-28T07:10:01.318Z,1.4
2023-01-28T07:20:02.192Z,1.5
2023-01-28T07:30:01.081Z,2.5
2023-01-28T07:40:01.925Z,1.4
2023-01-28T07:50:01.534Z,1.7
2023-01-28T08:00:01.046Z,1.5
2023-01-28T08:10:00.511Z,1.6
2023-01-28T08:20:01.229Z,1.7
2023-01-28T08:30:01.224Z,1.8
2023-01-28T08:40:01.341Z,1.6
2023-01-28T08:50:01.118Z,1.8
2023-01-28T09:00:01.166Z,1.5
2023-01-28T09:10:01.548Z,1.6
2023-01-28T09:20:01.614Z,1.8
2023-01-28T09:30:01.128Z,2.0
2023-01-28T09:40:01.434Z,2.0
2023-01-28T09:50:02.199Z,2.0
2023-01-28T10:00:01.040Z,2.0
2023-01-28T10:10:02.439Z,1.8
2023-01-28T10:20:01.254Z,2.1
2023-01-28T10:30:02.056Z,3.8
2023-01-28T10:40:01.480Z,3.8
2023-01-28T10:50:01.012Z,2.6
2023-01-28T11:00:01.039Z,2.4
2023-01-28T11:10:02.523Z,2.2
2023-01-28T11:20:01.175Z,2.5
2023-01-28T11:30:01.109Z,2.4
2023-01-28T11:40:01.039Z,2.2
2023-01-28T11:50:01.441Z,2.3
2023-01-28T12:00:01.084Z,2.5
2023-01-28T12:10:03.615Z,2.7
2023-01-28T12:20:01.331Z,2.5
2023-01-28T12:30:01.023Z,1.9
2023-01-28T12:40:01.965Z,1.6
2023-01-28T12:50:02.178Z,2.0
2023-01-28T13:00:01.207Z,1.9
2023-01-28T13:10:01.210Z,2.0
2023-01-28T13:20:01.710Z,2.4
2023-01-28T13:30:01.401Z,2.6
2023-01-28T13:40:01.165Z,2.4
2023-01-28T13:50:01.755Z,2.3
2023-01-28T14:00:01.508Z,2.2
2023-01-28T14:10:01.433Z,2.3
2023-01-28T14:20:02.234Z,2.5
2023-01-28T14:30:01.305Z,2.2
2023-01-28T14:40:01.125Z,2.3
2023-01-28T14:50:01.165Z,2.2
2023-01-28T15:00:01.561Z,2.0
2023-01-28T15:10:01.135Z,1.8
2023-01-28T15:20:01.044Z,1.9
2023-01-28T15:30:01.477Z,1.8
2023-01-28T15:40:02.053Z,1.8
2023-01-28T15:50:00.970Z,1.6
2023-01-28T16:00:01.067Z,1.7
2023-01-28T16:10:01.758Z,1.6
2023-01-28T16:20:01.174Z,1.5
2023-01-28T16:30:01.119Z,1.5
2023-01-28T16:40:02.347Z,1.3
2023-01-28T16:50:01.120Z,1.3
2023-01-28T17:00:01.384Z,1.3
2023-01-28T17:10:02.934Z,1.4
2023-01-28T17:20:02.327Z,1.2
2023-01-28T17:30:01.091Z,1.2
2023-01-28T17:40:01.595Z,1.0
2023-01-28T17:50:02.178Z,1.0
2023-01-28T18:00:02.633Z,1.1
2023-01-28T18:10:02.619Z,1.1
2023-01-28T18:20:01.076Z,0.8
2023-01-28T18:30:00.828Z,0.7
2023-01-28T18:40:01.684Z,0.5
2023-01-28T18:50:02.172Z,0.5
2023-01-28T19:00:01.885Z,0.4
2023-01-28T19:10:02.277Z,0.6
2023-01-28T19:20:01.127Z,0.6
2023-01-28T19:30:02.089Z,0.3
2023-01-28T19:40:01.136Z,0.3
2023-01-28T19:50:01.056Z,0.6
2023-01-28T20:00:03.973Z,0.7
2023-01-28T20:10:01.569Z,0.4
2023-01-28T20:20:02.007Z,0.3
2023-01-28T20:30:02.588Z,0.1
2023-01-28T20:40:01.361Z,-0.1
2023-01-28T20:50:01.497Z,0.0
2023-01-28T21:00:01.034Z,-0.1
2023-01-28T21:10:02.486Z,0.0
2023-01-28T21:30:02.868Z,-0.4
2023-01-28T21:40:02.695Z,-0.4
2023-01-28T21:50:01.546Z,-0.6
2023-01-28T22:00:02.045Z,-0.6
2023-01-28T22:10:01.353Z,-0.8
2023-01-28T22:20:01.063Z,-0.7
2023-01-28T22:40:02.135Z,-0.9
2023-01-28T22:50:01.019Z,-1.0
2023-01-28T23:00:01.911Z,-0.9
2023-01-28T23:10:01.112Z,-0.7
2023-01-28T23:20:01.051Z,-0.9
2023-01-28T23:30:01.504Z,-0.7
2023-01-28T23:40:01.079Z,-0.7
2023-01-28T23:50:01.113Z,-0.5
